Seacod — DDPW — position and weather

sailwx.info

Track history (hours):
 
Tides and Currents Weather Stations Pressure Air Temp Water Temp Dewpoint Dewpoint Depression Visibility Wind Speed Wind Dir Waves Ship Positions

Seacod

Last reported at 2016-Feb-09 00:33 UTC. Time now 2016-Feb-09 01:24 UTC.
Position N 54°31' E 011°30'.

Length 188 m; draft 10.9 m.

Type: Ship. MMSI: 218019000.

Date/timePositionNaut miles runAvg speedWind from/ knotsBaromVisibWave heightAir tempDewpointWater temp
2016-Feb-09 00:33N 54°31' E 011°30'1313.2
2016-Feb-08 23:33N 54°26' E 011°51'1212.1
2016-Feb-08 22:33N 54°28' E 012°12'1312.5
2016-Feb-08 21:33N 54°39' E 012°23'5313.3
2016-Feb-08 17:33N 55°02' E 013°47'1312.9
2016-Feb-08 16:33N 55°07' E 014°08'1312.9
2016-Feb-08 15:33N 55°17' E 014°22'1312.9
2016-Feb-08 14:33N 55°27' E 014°37'1312.8
2016-Feb-08 13:32N 55°33' E 014°57'36312.9
2016-Feb-07 09:22N 59°37' E 023°18'1113.7
2016-Feb-07 08:32N 59°40' E 023°40'8313.8
2016-Feb-07 02:34N 59°60' E 026°20'1413.7
2016-Feb-07 01:33N 60°01' E 026°47'2613.1
2016-Feb-06 23:33N 60°09' E 027°37'1312.7
2016-Feb-06 22:33N 60°10' E 028°02'1312.9
2016-Feb-06 21:33N 60°06' E 028°27'11 9.7
2016-Feb-06 20:25N 60°13' E 028°45'7 0.2
2016-Feb-05 16:27N 60°19' E 028°44'5 5.0
2016-Feb-05 15:28N 60°15' E 028°48'7 7.9
2016-Feb-05 14:33N 60°09' E 028°39'8 8.3
2016-Feb-05 13:33N 60°06' E 028°24'8 7.7
2016-Feb-05 12:33N 60°08' E 028°10'8 8.5
2016-Feb-05 11:34N 60°10' E 027°53'8 7.7
2016-Feb-05 10:33N 60°08' E 027°38'10 8.1
2016-Feb-05 09:19N 60°03' E 027°21'14 7.7
2016-Feb-05 07:32N 59°58' E 026°55'1111.2
2016-Feb-05 06:33N 59°59' E 026°33'7812.9
2016-Feb-05 00:28N 59°40' E 024°02'1212.9
2016-Feb-04 23:32N 59°35' E 023°40'35911.9
2016-Feb-03 17:28N 55°37' E 015°21'1112.2
2016-Feb-03 16:33N 55°31' E 015°03'1212.1
2016-Feb-03 15:33N 55°25' E 014°45'1111.3
2016-Feb-03 14:33N 55°17' E 014°31'1111.3
2016-Feb-03 13:33N 55°09' E 014°17'1211.8
2016-Feb-03 12:33N 55°10' E 013°57'2512.4
2016-Feb-03 10:33N 55°13' E 013°14'1512.7
2016-Feb-03 09:20N 55°15' E 012°47'810.2
2016-Feb-03 08:33N 55°21' E 012°37'1111.5
2016-Feb-03 07:33N 55°33' E 012°42'1212.4
2016-Feb-03 06:33N 55°45' E 012°41'1413.6
2016-Feb-03 05:34N 55°59' E 012°40'1212.5
2016-Feb-03 04:34N 56°08' E 012°27'1110.5
2016-Feb-03 03:33N 56°15' E 012°11'1610.7
2016-Feb-03 02:04N 56°29' E 011°59'612.3
2016-Feb-03 01:34N 56°35' E 011°56'1111.4
2016-Feb-03 00:33N 56°46' E 011°52'1212.0
2016-Feb-02 23:32N 56°57' E 011°43'1313.2
2016-Feb-02 22:33N 57°09' E 011°35'1313.2
2016-Feb-02 21:34N 57°22' E 011°27'1212.4
2016-Feb-02 20:34N 57°32' E 011°15'1413.0
2016-Feb-02 19:31N 57°41' E 010°56'1313.4
2016-Feb-02 18:33N 57°48' E 010°35'27213.3
2016-Feb-01 22:05N 54°23' E 005°16'611.2
2016-Feb-01 21:32N 54°17' E 005°13'1111.4
2016-Feb-01 20:33N 54°06' E 005°08'1111.4
2016-Feb-01 19:33N 53°55' E 005°03'1311.8
2016-Feb-01 18:28N 53°43' E 004°55'3611.6
2016-Feb-01 15:24N 53°11' E 004°30'1011.5
2016-Feb-01 14:33N 53°02' E 004°24'1111.5
2016-Feb-01 13:33N 52°52' E 004°16'1211.9
2016-Feb-01 12:32N 52°42' E 004°03'8113.6
2016-Feb-01 06:33N 51°43' E 002°33'1514.6
2016-Feb-01 05:33N 51°32' E 002°18'1211.8
2016-Feb-01 04:33N 51°21' E 002°10'1413.4
2016-Feb-01 03:31N 51°11' E 001°55'1313.9
2016-Feb-01 02:33N 51°02' E 001°40'  
Track history (hours):
 
Tides and Currents Weather Stations Pressure Air Temp Water Temp Dewpoint Dewpoint Depression Visibility Wind Speed Wind Dir Waves Ship Positions

Seacod

Last reported at 2016-Feb-09 00:33 UTC. Time now 2016-Feb-09 01:24 UTC.
Position N 54°31' E 011°30'.

Length 188 m; draft 10.9 m.

Type: Ship. MMSI: 218019000.

Date/timePositionNaut miles runAvg speedWind from/ knotsBaromVisibWave heightAir tempDewpointWater temp
2016-Feb-09 00:33N 54°31' E 011°30'1313.2
2016-Feb-08 23:33N 54°26' E 011°51'1212.1
2016-Feb-08 22:33N 54°28' E 012°12'1312.5
2016-Feb-08 21:33N 54°39' E 012°23'5313.3
2016-Feb-08 17:33N 55°02' E 013°47'1312.9
2016-Feb-08 16:33N 55°07' E 014°08'1312.9
2016-Feb-08 15:33N 55°17' E 014°22'1312.9
2016-Feb-08 14:33N 55°27' E 014°37'1312.8
2016-Feb-08 13:32N 55°33' E 014°57'36312.9
2016-Feb-07 09:22N 59°37' E 023°18'1113.7
2016-Feb-07 08:32N 59°40' E 023°40'8313.8
2016-Feb-07 02:34N 59°60' E 026°20'1413.7
2016-Feb-07 01:33N 60°01' E 026°47'2613.1
2016-Feb-06 23:33N 60°09' E 027°37'1312.7
2016-Feb-06 22:33N 60°10' E 028°02'1312.9
2016-Feb-06 21:33N 60°06' E 028°27'11 9.7
2016-Feb-06 20:25N 60°13' E 028°45'7 0.2
2016-Feb-05 16:27N 60°19' E 028°44'5 5.0
2016-Feb-05 15:28N 60°15' E 028°48'7 7.9
2016-Feb-05 14:33N 60°09' E 028°39'8 8.3
2016-Feb-05 13:33N 60°06' E 028°24'8 7.7
2016-Feb-05 12:33N 60°08' E 028°10'8 8.5
2016-Feb-05 11:34N 60°10' E 027°53'8 7.7
2016-Feb-05 10:33N 60°08' E 027°38'10 8.1
2016-Feb-05 09:19N 60°03' E 027°21'14 7.7
2016-Feb-05 07:32N 59°58' E 026°55'1111.2
2016-Feb-05 06:33N 59°59' E 026°33'7812.9
2016-Feb-05 00:28N 59°40' E 024°02'1212.9
2016-Feb-04 23:32N 59°35' E 023°40'35911.9
2016-Feb-03 17:28N 55°37' E 015°21'1112.2
2016-Feb-03 16:33N 55°31' E 015°03'1212.1
2016-Feb-03 15:33N 55°25' E 014°45'1111.3
2016-Feb-03 14:33N 55°17' E 014°31'1111.3
2016-Feb-03 13:33N 55°09' E 014°17'1211.8
2016-Feb-03 12:33N 55°10' E 013°57'2512.4
2016-Feb-03 10:33N 55°13' E 013°14'1512.7
2016-Feb-03 09:20N 55°15' E 012°47'810.2
2016-Feb-03 08:33N 55°21' E 012°37'1111.5
2016-Feb-03 07:33N 55°33' E 012°42'1212.4
2016-Feb-03 06:33N 55°45' E 012°41'1413.6
2016-Feb-03 05:34N 55°59' E 012°40'1212.5
2016-Feb-03 04:34N 56°08' E 012°27'1110.5
2016-Feb-03 03:33N 56°15' E 012°11'1610.7
2016-Feb-03 02:04N 56°29' E 011°59'612.3
2016-Feb-03 01:34N 56°35' E 011°56'1111.4
2016-Feb-03 00:33N 56°46' E 011°52'1212.0
2016-Feb-02 23:32N 56°57' E 011°43'1313.2
2016-Feb-02 22:33N 57°09' E 011°35'1313.2
2016-Feb-02 21:34N 57°22' E 011°27'1212.4
2016-Feb-02 20:34N 57°32' E 011°15'1413.0
2016-Feb-02 19:31N 57°41' E 010°56'1313.4
2016-Feb-02 18:33N 57°48' E 010°35'27213.3
2016-Feb-01 22:05N 54°23' E 005°16'611.2
2016-Feb-01 21:32N 54°17' E 005°13'1111.4
2016-Feb-01 20:33N 54°06' E 005°08'1111.4
2016-Feb-01 19:33N 53°55' E 005°03'1311.8
2016-Feb-01 18:28N 53°43' E 004°55'3611.6
2016-Feb-01 15:24N 53°11' E 004°30'1011.5
2016-Feb-01 14:33N 53°02' E 004°24'1111.5
2016-Feb-01 13:33N 52°52' E 004°16'1211.9
2016-Feb-01 12:32N 52°42' E 004°03'8113.6
2016-Feb-01 06:33N 51°43' E 002°33'1514.6
2016-Feb-01 05:33N 51°32' E 002°18'1211.8
2016-Feb-01 04:33N 51°21' E 002°10'1413.4
2016-Feb-01 03:31N 51°11' E 001°55'1313.9
2016-Feb-01 02:33N 51°02' E 001°40'  

Dump ship's entire track history